Latest Weather Observations for Khancoban

IDN60801

Issued at 10:05 pm EST Saturday 19 April 2014 (issued every 30 minutes, with the page automatically refreshed every 10 minutes)

About weather observations | Map of weather stations | Latest weather observations for NSW | Other Formats
Station Details ID: 072162 Name: KHANCOBAN AWS Lat: -36.23 Lon: 148.14 Height: 339.3 m
Data from the previous 72 hours. | See also: Recent months at Khancoban
Date/Time
EST
Temp
°C
App
Temp
°C
Dew
Point
Rel
Hum
%
Delta-T
°C
Wind Press
QNH
hPa
Press
MSL
hPa
Rain
since 9 am
mm
Dir
 
Spd
km/h
Gust
km/h
Spd
kts
Gust
kts
19/10:00pm 6.7 5.9 6.6 99 0.0 SSE 0 0 0 0 1018.6 1018.2 0.2
19/09:30pm 6.3 4.1 6.2 99 0.0 S 7 7 4 4 1018.6 - 0.2
19/09:00pm 6.9 6.1 6.6 98 0.1 ENE 0 0 0 0 1018.4 1018.0 0.2
19/08:30pm 7.6 7.0 7.5 99 0.0 CALM 0 0 0 0 1018.1 - 0.2
19/08:00pm 8.9 8.4 8.0 94 0.4 CALM 0 0 0 0 1017.8 1017.5 0.2
19/07:30pm 9.0 8.4 7.5 90 0.7 CALM 0 0 0 0 1017.7 - 0.2
19/07:00pm 9.2 8.5 6.8 85 1.1 CALM 0 0 0 0 1017.5 1017.1 0.2
19/06:30pm 10.5 8.6 7.6 82 1.4 S 7 9 4 5 1017.2 - 0.2
19/06:00pm 11.5 10.9 7.4 76 2.0 CALM 0 6 0 3 1016.9 1016.5 0.2
19/05:30pm 13.4 11.3 6.5 63 3.4 NE 7 9 4 5 1016.7 - 0.2
19/05:00pm 15.3 12.9 6.8 57 4.2 NW 9 13 5 7 1016.6 1016.2 0.2
19/04:30pm 16.1 12.8 6.3 52 4.9 WNW 13 17 7 9 1016.5 - 0.2
19/04:00pm 16.7 14.1 6.2 50 5.2 NNW 9 13 5 7 1016.4 1016.0 0.2
19/03:30pm 16.9 14.7 6.1 49 5.4 NNW 7 11 4 6 1016.4 - 0.2
19/03:00pm 17.7 15.7 4.6 42 6.3 NW 4 9 2 5 1016.3 1015.9 0.2
19/02:30pm 16.9 14.5 4.3 43 6.0 NNW 6 11 3 6 1016.5 - 0.2
19/02:00pm 16.5 13.6 4.5 45 5.7 NW 9 15 5 8 1016.7 1016.3 0.0
19/01:30pm 16.1 12.8 4.8 47 5.4 NW 11 17 6 9 1016.7 - 0.0
19/01:00pm 16.1 12.7 6.0 51 5.0 W 13 19 7 10 1016.9 1016.5 0.0
19/12:30pm 15.7 12.5 5.3 50 5.0 W 11 15 6 8 1017.4 - 0.0
19/12:00pm 15.4 12.4 3.9 46 5.4 NNW 9 15 5 8 1017.8 1017.5 0.0
19/11:30am 15.3 12.6 5.8 53 4.6 WNW 9 17 5 9 1018.1 - 0.0
19/11:00am 14.1 11.6 3.8 50 4.8 W 6 13 3 7 1018.6 1018.2 0.0
19/10:30am 13.4 11.6 5.6 59 3.7 NW 4 7 2 4 1018.9 - 0.0
19/10:00am 11.8 10.0 5.2 64 3.1 N 4 9 2 5 1019.1 1018.7 0.0
19/09:30am 10.8 9.5 6.2 73 2.2 WNW 2 6 1 3 1019.0 - 0.0
19/09:00am 9.4 8.7 6.8 84 1.2 CALM 0 6 0 3 1019.2 1018.8 0.8
19/08:30am 8.0 7.0 5.6 85 1.1 CALM 0 0 0 0 1019.3 - 0.8
19/08:00am 5.9 4.9 5.8 99 0.0 CALM 0 0 0 0 1019.3 1018.9 0.8
19/07:30am 3.3 1.9 3.3 100 0.0 CALM 0 0 0 0 1019.3 - 0.8
19/07:00am 2.9 1.4 2.9 100 0.0 CALM 0 0 0 0 1018.8 1018.4 0.8
19/06:30am 3.2 1.7 3.2 100 0.0 CALM 0 0 0 0 1018.6 - 0.8
19/06:00am 3.5 2.1 3.4 99 0.0 CALM 0 0 0 0 1018.1 1017.8 0.8
19/05:30am 3.9 2.5 3.8 99 0.0 CALM 0 0 0 0 1018.0 - 0.8
19/05:00am 3.8 2.0 3.7 99 0.0 E 2 7 1 4 1017.9 1017.6 0.8
19/04:30am 4.6 3.4 4.5 99 0.0 CALM 0 0 0 0 1017.4 - 0.8
19/04:00am 5.6 3.3 4.6 93 0.4 S 6 9 3 5 1017.3 1016.9 0.8
19/03:30am 5.4 4.0 3.7 89 0.7 SE 0 7 0 4 1017.3 - 0.8
19/03:00am 5.7 3.6 4.0 89 0.7 SE 4 9 2 5 1017.2 1016.8 0.8
19/02:30am 6.3 5.1 4.8 90 0.7 CALM 0 6 0 3 1017.2 - 0.8
19/02:00am 6.5 4.9 4.7 88 0.8 SE 2 7 1 4 1016.9 1016.5 0.8
19/01:30am 7.5 6.5 5.5 87 0.9 SE 0 6 0 3 1016.9 - 0.8
19/01:00am 8.3 7.4 6.1 86 1.0 CALM 0 6 0 3 1016.8 1016.4 0.8
19/12:30am 10.1 10.0 9.6 97 0.3 CALM 0 0 0 0 1016.7 - 0.8
19/12:00am 11.0 10.2 9.6 91 0.7 ESE 4 9 2 5 1016.7 1016.3 0.8
 
Date/Time
EST
Temp
°C
App
Temp
°C
Dew
Point
Rel
Hum
%
Delta-T
°C
Wind Press
QNH
hPa
Press
MSL
hPa
Rain
since 9 am
mm
Dir
 
Spd
km/h
Gust
km/h
Spd
kts
Gust
kts
18/11:30pm 11.0 11.3 11.0 100 0.0 CALM 0 0 0 0 1016.7 - 0.8
18/11:00pm 11.4 11.8 11.4 100 0.0 CALM 0 0 0 0 1016.6 1016.2 0.8
18/10:30pm 11.4 11.1 11.4 100 0.0 NW 4 7 2 4 1016.6 - 0.8
18/10:00pm 11.2 10.8 11.2 100 0.0 SSE 4 9 2 5 1016.5 1016.1 0.6
18/09:30pm 10.5 10.7 10.5 100 0.0 CALM 0 6 0 3 1016.5 - 0.6
18/09:00pm 11.8 12.4 11.8 100 0.0 CALM 0 4 0 2 1016.4 1016.0 0.6
18/08:30pm 12.4 12.8 12.4 100 0.0 ENE 2 6 1 3 1016.2 - 0.6
18/08:00pm 13.4 14.1 13.4 100 0.0 WNW 2 7 1 4 1015.9 1015.5 0.6
18/07:30pm 13.8 14.6 13.8 100 0.0 NE 2 9 1 5 1015.6 - 0.6
18/07:00pm 14.0 15.3 14.0 100 0.0 CALM 0 0 0 0 1015.5 1015.1 0.6
18/06:30pm 14.5 15.3 13.7 95 0.5 SSE 2 7 1 4 1015.4 - 0.4
18/06:00pm 15.2 14.8 13.1 87 1.2 S 7 11 4 6 1014.8 1014.4 0.0
18/05:30pm 15.7 16.0 12.3 80 1.9 S 2 7 1 4 1014.6 - 0.0
18/05:00pm 16.1 16.0 12.1 77 2.2 S 4 9 2 5 1014.5 1014.1 0.0
18/04:30pm 16.4 16.7 12.2 76 2.3 NNW 2 7 1 4 1014.3 - 0.0
18/04:00pm 17.5 16.5 11.1 66 3.5 NW 7 11 4 6 1014.2 1013.8 0.0
18/03:30pm 17.8 16.7 10.7 63 3.9 WNW 7 11 4 6 1014.4 - 0.0
18/03:00pm 18.1 15.9 10.7 62 4.0 WNW 13 17 7 9 1014.4 1014.0 0.0
18/02:30pm 18.4 16.6 11.0 62 4.1 NW 11 17 6 9 1014.4 - 0.0
18/02:00pm 19.1 17.3 10.9 59 4.5 NNW 11 20 6 11 1014.7 1014.3 0.0
18/01:30pm 17.2 17.1 10.8 66 3.5 WNW 2 6 1 3 1015.5 - 0.0
18/01:00pm 17.3 16.8 10.9 66 3.5 SE 4 7 2 4 1015.9 1015.5 0.0
18/12:30pm 16.6 17.3 13.3 81 1.9 WSW 2 9 1 5 1016.3 - 0.0
18/12:00pm 14.3 14.4 11.5 83 1.5 N 2 9 1 5 1016.9 1016.5 0.0
18/11:30am 12.8 12.7 10.9 88 1.0 W 2 6 1 3 1017.7 - 0.0
18/11:00am 12.4 12.4 11.0 91 0.7 W 2 7 1 4 1017.8 1017.5 0.0
18/10:30am 11.8 12.3 11.6 99 0.1 CALM 0 4 0 2 1018.2 - 0.0
18/10:00am 10.6 9.1 10.6 100 0.0 SW 9 11 5 6 1018.7 1018.3 0.0
18/09:30am 9.9 9.9 9.9 100 0.0 CALM 0 0 0 0 1019.2 - 0.0
18/09:00am 8.9 8.7 8.9 100 0.0 CALM 0 0 0 0 1019.4 1019.0 0.0
18/08:30am 8.4 7.3 8.4 100 0.0 NNW 4 7 2 4 1019.3 - 0.0
18/08:00am 7.6 7.0 7.6 100 0.0 CALM 0 0 0 0 1019.1 1018.7 0.0
18/07:30am 7.4 6.8 7.4 100 0.0 CALM 0 0 0 0 1018.9 - 0.0
18/07:00am 7.2 6.6 7.2 100 0.0 CALM 0 0 0 0 1018.9 1018.5 0.0
18/06:30am 6.7 5.9 6.7 100 0.0 CALM 0 0 0 0 1018.8 - 0.0
18/06:00am 7.1 6.4 7.1 100 0.0 CALM 0 0 0 0 1019.0 1018.6 0.0
18/05:30am 6.8 5.3 6.8 100 0.0 NE 4 7 2 4 1018.8 - 0.0
18/05:00am 6.6 5.8 6.6 100 0.0 CALM 0 0 0 0 1018.7 1018.3 0.0
18/04:30am 7.3 6.7 7.3 100 0.0 CALM 0 0 0 0 1018.9 - 0.0
18/04:00am 6.9 6.2 6.9 100 0.0 CALM 0 2 0 1 1018.9 1018.5 0.0
18/03:30am 7.1 6.0 7.1 100 0.0 ENE 2 7 1 4 1018.9 - 0.0
18/03:00am 7.1 6.4 7.1 100 0.0 CALM 0 0 0 0 1019.2 1018.8 0.0
18/02:30am 7.5 6.9 7.5 100 0.0 CALM 0 0 0 0 1019.5 - 0.0
18/02:00am 7.9 7.4 7.9 100 0.0 CALM 0 0 0 0 1019.7 1019.3 0.0
18/01:30am 7.8 7.3 7.8 100 0.0 CALM 0 6 0 3 1019.7 - 0.0
18/01:00am 8.1 7.7 8.1 100 0.0 CALM 0 0 0 0 1019.8 1019.4 0.0
18/12:30am 8.8 8.5 8.8 100 0.0 CALM 0 0 0 0 1019.8 - 0.0
18/12:00am 8.5 8.2 8.5 100 0.0 CALM 0 0 0 0 1020.0 1019.6 0.0
 
Date/Time
EST
Temp
°C
App
Temp
°C
Dew
Point
Rel
Hum
%
Delta-T
°C
Wind Press
QNH
hPa
Press
MSL
hPa
Rain
since 9 am
mm
Dir
 
Spd
km/h
Gust
km/h
Spd
kts
Gust
kts
17/11:30pm 9.0 7.6 9.0 100 0.0 NE 6 7 3 4 1020.1 - 0.0
17/11:00pm 8.7 8.4 8.7 100 0.0 CALM 0 0 0 0 1020.3 1019.9 0.0
17/10:30pm 9.2 9.0 9.1 99 0.1 CALM 0 0 0 0 1020.7 - 0.0
17/10:00pm 9.4 8.9 9.3 99 0.1 S 2 6 1 3 1020.9 1020.6 0.0
17/09:30pm 9.8 9.8 9.7 99 0.1 CALM 0 0 0 0 1020.7 - 0.0
17/09:00pm 10.8 9.9 10.6 99 0.1 N 6 9 3 5 1020.5 1020.2 0.0
17/08:30pm 11.0 11.2 10.7 98 0.2 CALM 0 0 0 0 1020.3 - 0.0
17/08:00pm 11.3 11.1 10.5 95 0.4 S 2 7 1 4 1020.3 1019.9 0.0
17/07:30pm 11.8 12.0 10.5 92 0.7 CALM 0 0 0 0 1020.2 - 0.0
17/07:00pm 12.2 12.3 10.3 88 1.0 CALM 0 0 0 0 1020.0 1019.6 0.0
17/06:30pm 13.1 12.0 10.1 82 1.6 SSE 6 9 3 5 1019.6 - 0.0
17/06:00pm 14.0 13.6 11.0 82 1.6 SSE 4 7 2 4 1019.3 1018.9 0.0
17/05:30pm 15.2 15.3 10.0 71 2.8 CALM 0 0 0 0 1019.0 - 0.0
17/05:00pm 18.3 17.0 9.9 58 4.5 N 7 9 4 5 1018.8 1018.4 0.0
17/04:30pm 20.4 20.0 8.4 46 6.4 CALM 0 0 0 0 1019.0 - 0.0
17/04:00pm 20.8 19.4 8.8 46 6.4 NNW 6 13 3 7 1019.2 1018.8 0.0
17/03:30pm 20.4 18.7 8.4 46 6.4 N 7 13 4 7 1019.4 - 0.0
17/03:00pm 20.4 18.1 7.4 43 6.8 NW 9 13 5 7 1019.5 1019.1 0.0
17/02:30pm 20.6 18.1 9.8 50 5.9 NW 13 17 7 9 1019.5 - 0.0
17/02:00pm 19.9 17.2 7.3 44 6.5 NW 11 19 6 10 1019.6 1019.2 0.0
17/01:30pm 20.0 17.5 8.4 47 6.1 NW 11 15 6 8 1019.8 - 0.0
17/01:00pm 19.4 17.1 7.5 46 6.2 NW 9 15 5 8 1020.1 1019.7 0.0
17/12:30pm 19.5 19.0 10.8 57 4.8 NW 4 9 2 5 1020.4 - 0.0
17/12:00pm 18.1 17.4 10.0 59 4.4 NNE 4 9 2 5 1021.1 1020.8 0.0
17/11:30am 17.3 16.5 11.8 70 3.1 WNW 7 11 4 6 1021.8 - 0.0
17/11:00am 15.6 14.2 8.8 64 3.5 N 6 9 3 5 1022.0 1021.6 0.0
17/10:30am 14.5 14.0 9.5 72 2.6 W 2 6 1 3 1022.1 - 0.0
17/10:00am 13.6 12.6 8.9 73 2.4 W 4 7 2 4 1022.2 1021.8 0.0
17/09:30am 12.0 10.6 8.7 80 1.7 NW 6 9 3 5 1022.4 - 0.0
17/09:00am 11.1 10.7 9.9 92 0.6 N 2 7 1 4 1022.5 1022.1 0.0
17/08:30am 9.8 9.2 9.0 95 0.4 N 2 6 1 3 1022.5 - 0.0
17/08:00am 8.3 7.9 8.3 100 0.0 CALM 0 0 0 0 1022.5 1022.1 0.0
17/07:30am 6.1 5.2 6.1 100 0.0 CALM 0 0 0 0 1022.3 - 0.0
17/07:00am 5.9 5.0 5.9 100 0.0 CALM 0 2 0 1 1021.9 1021.5 0.0
17/06:30am 6.2 4.9 6.2 100 0.0 SSE 2 6 1 3 1021.5 - 0.0
17/06:00am 6.3 5.5 6.3 100 0.0 CALM 0 0 0 0 1021.0 1020.7 0.0
17/05:30am 6.2 4.6 6.2 100 0.0 NNE 4 7 2 4 1020.6 - 0.0
17/05:00am 6.0 5.1 6.0 100 0.0 CALM 0 0 0 0 1020.1 1019.7 0.0
17/04:30am 6.6 5.8 6.6 100 0.0 CALM 0 0 0 0 1020.1 - 0.0
17/04:00am 6.9 6.2 6.9 100 0.0 CALM 0 0 0 0 1020.3 1019.9 0.0
17/03:30am 7.3 6.7 7.3 100 0.0 CALM 0 0 0 0 1020.2 - 0.0
17/03:00am 7.2 6.6 7.2 100 0.0 CALM 0 0 0 0 1020.2 1019.8 0.0
17/02:30am 7.2 6.6 7.2 100 0.0 CALM 0 2 0 1 1020.2 - 0.0
17/02:00am 7.6 7.0 7.6 100 0.0 CALM 0 0 0 0 1020.4 1020.1 0.0
17/01:30am 7.9 7.4 7.9 100 0.0 CALM 0 0 0 0 1020.6 - 0.0
17/01:00am 8.4 7.3 8.4 100 0.0 SE 4 7 2 4 1020.6 1020.3 0.0
17/12:30am 8.0 7.5 8.0 100 0.0 CALM 0 0 0 0 1020.6 - 0.0
17/12:00am 8.3 7.9 8.3 100 0.0 CALM 0 0 0 0 1020.7 1020.4 0.0
 
Date/Time
EST
Temp
°C
App
Temp
°C
Dew
Point
Rel
Hum
%
Delta-T
°C
Wind Press
QNH
hPa
Press
MSL
hPa
Rain
since 9 am
mm
Dir
 
Spd
km/h
Gust
km/h
Spd
kts
Gust
kts
16/11:30pm 8.9 8.7 8.9 100 0.0 CALM 0 0 0 0 1021.0 - 0.0
16/11:00pm 8.7 8.4 8.6 99 0.0 CALM 0 0 0 0 1021.1 1020.8 0.0
16/10:30pm 9.6 9.5 9.5 99 0.1 CALM 0 0 0 0 1021.1 - 0.0

Other Formats:

Comma delimited format used in spreadsheet applications
http://www.bom.gov.au/fwo/IDN60801/IDN60801.94919.axf

JavaScript Object Notation format (JSON) in row-major order
http://www.bom.gov.au/fwo/IDN60801/IDN60801.94919.json